Time;durP1;ratioP1;P1;durP2;ratioP2;P2;SDS_P1;SDS_P2;PMS_P1;PMS_P2;Temp;Humidity;BMP_temperature;BMP_pressure;BME280_temperature;BME280_humidity;BME280_pressure;Samples;Min_cycle;Max_cycle;Signal;HPM_P1;HPM_P2
2023/02/18 00:01:41;;;;;;;3.65;2.67;;;;;;;;;;5032054;28;20029;-79
2023/02/18 00:04:08;;;;;;;3.78;2.83;;;;;;;;;;5047152;28;20029;-79
2023/02/18 00:06:35;;;;;;;4.15;2.92;;;;;;;;;;5030683;28;20022;-78
2023/02/18 00:09:01;;;;;;;6.50;2.85;;;;;;;;;;5030025;28;20030;-79
2023/02/18 00:11:30;;;;;;;2.90;2.40;;;;;;;;;;5031174;28;20060;-78
2023/02/18 00:13:58;;;;;;;4.38;3.22;;;;;;;;;;5031202;28;20034;-79
2023/02/18 00:16:24;;;;;;;3.78;2.80;;;;;;;;;;5031178;28;20029;-79
2023/02/18 00:18:53;;;;;;;4.07;3.17;;;;;;;;;;5031500;28;20111;-79
2023/02/18 00:21:19;;;;;;;5.43;3.40;;;;;;;;;;5031137;28;20481;-78
2023/02/18 00:23:44;;;;;;;3.88;2.90;;;;;;;;;;5030216;28;20029;-78
2023/02/18 00:26:14;;;;;;;4.03;3.00;;;;;;;;;;5046361;28;20104;-78
2023/02/18 00:28:40;;;;;;;4.97;2.88;;;;;;;;;;5031304;28;20492;-79
2023/02/18 00:31:19;;;;;;;5.57;3.58;;;;;;;;;;5031692;28;20491;-80
2023/02/18 00:33:44;;;;;;;3.75;2.90;;;;;;;;;;5030980;28;20045;-79
2023/02/18 00:36:18;;;;;;;3.90;3.30;;;;;;;;;;5031643;28;20141;-78
2023/02/18 00:38:54;;;;;;;8.90;3.47;;;;;;;;;;5032438;28;20392;-80
2023/02/18 00:41:22;;;;;;;6.57;3.45;;;;;;;;;;5030080;28;20541;-80
2023/02/18 00:43:47;;;;;;;4.50;3.40;;;;;;;;;;5032238;28;20033;-79
2023/02/18 00:46:13;;;;;;;3.80;3.13;;;;;;;;;;5046879;28;20025;-78
2023/02/18 00:48:39;;;;;;;5.75;3.70;;;;;;;;;;5030083;28;20025;-79
2023/02/18 00:51:06;;;;;;;5.90;2.78;;;;;;;;;;5031671;28;20516;-80
2023/02/18 00:53:32;;;;;;;4.80;2.40;;;;;;;;;;5051224;28;20029;-79
2023/02/18 00:55:57;;;;;;;4.35;2.72;;;;;;;;;;5051661;28;20030;-79
2023/02/18 00:58:23;;;;;;;3.47;2.33;;;;;;;;;;5035247;28;20116;-79
2023/02/18 01:00:48;;;;;;;6.40;2.53;;;;;;;;;;5050715;28;20072;-79
2023/02/18 01:03:14;;;;;;;3.22;2.10;;;;;;;;;;5033315;28;20141;-80
2023/02/18 01:05:40;;;;;;;3.38;2.50;;;;;;;;;;5035428;28;20491;-79
2023/02/18 01:08:08;;;;;;;3.58;1.95;;;;;;;;;;5035747;28;20026;-80
2023/02/18 01:10:38;;;;;;;3.53;1.70;;;;;;;;;;5050596;28;20315;-79
2023/02/18 01:13:04;;;;;;;4.05;1.85;;;;;;;;;;5033686;28;20175;-79
2023/02/18 01:15:30;;;;;;;3.17;2.10;;;;;;;;;;5033400;28;20310;-78
2023/02/18 01:17:55;;;;;;;3.97;1.55;;;;;;;;;;5034918;28;20038;-78
2023/02/18 01:20:21;;;;;;;4.55;2.40;;;;;;;;;;5034208;28;20440;-77
2023/02/18 01:22:47;;;;;;;2.53;1.92;;;;;;;;;;5049719;28;20037;-78
2023/02/18 01:25:13;;;;;;;2.30;1.75;;;;;;;;;;5050111;28;20107;-78
2023/02/18 01:27:39;;;;;;;3.08;2.20;;;;;;;;;;5034007;28;20036;-80
2023/02/18 01:30:08;;;;;;;2.38;1.98;;;;;;;;;;5033197;28;20030;-79
2023/02/18 01:32:34;;;;;;;2.53;1.90;;;;;;;;;;5034934;28;20034;-80
2023/02/18 01:35:01;;;;;;;3.53;1.75;;;;;;;;;;5034372;28;20603;-79
2023/02/18 01:37:26;;;;;;;4.03;1.80;;;;;;;;;;5033999;28;20029;-80
2023/02/18 01:39:52;;;;;;;2.83;1.83;;;;;;;;;;5049786;28;20037;-79
2023/02/18 01:42:25;;;;;;;2.95;2.10;;;;;;;;;;5053224;28;20103;-79
2023/02/18 01:44:50;;;;;;;3.35;2.30;;;;;;;;;;5052183;28;20029;-80
2023/02/18 01:47:17;;;;;;;5.85;2.30;;;;;;;;;;5054518;28;20074;-79
2023/02/18 01:49:47;;;;;;;4.30;2.30;;;;;;;;;;5052861;28;20033;-80
2023/02/18 01:52:21;;;;;;;2.58;1.88;;;;;;;;;;5052738;28;20052;-79
2023/02/18 01:54:55;;;;;;;2.35;1.58;;;;;;;;;;5053418;28;20036;-79
2023/02/18 01:57:24;;;;;;;4.10;1.85;;;;;;;;;;5054109;28;20044;-79
2023/02/18 01:59:58;;;;;;;1.83;1.70;;;;;;;;;;5052637;28;20143;-79
2023/02/18 02:02:28;;;;;;;3.05;2.00;;;;;;;;;;5052522;28;20105;-79
2023/02/18 02:04:54;;;;;;;2.47;1.75;;;;;;;;;;5051790;28;20024;-79
2023/02/18 02:07:22;;;;;;;3.13;1.70;;;;;;;;;;5052110;28;20340;-79
2023/02/18 02:09:50;;;;;;;3.25;1.90;;;;;;;;;;5052441;28;20039;-81
2023/02/18 02:12:53;;;;;;;3.00;1.88;;;;;;;;;;5052688;28;20040;-79
2023/02/18 02:15:25;;;;;;;3.55;2.20;;;;;;;;;;5051914;28;20032;-79
2023/02/18 02:18:20;;;;;;;2.15;1.52;;;;;;;;;;5053890;28;20032;-80
2023/02/18 02:21:13;;;;;;;2.97;2.10;;;;;;;;;;5053824;28;20070;-80
2023/02/18 02:24:09;;;;;;;3.53;1.85;;;;;;;;;;5051777;28;20103;-80
2023/02/18 02:26:53;;;;;;;2.28;1.92;;;;;;;;;;5053439;28;20025;-80
2023/02/18 02:29:37;;;;;;;2.35;1.95;;;;;;;;;;5051424;28;20013;-79
2023/02/18 02:32:18;;;;;;;4.13;2.05;;;;;;;;;;5051902;28;20048;-80
2023/02/18 02:35:05;;;;;;;2.58;1.90;;;;;;;;;;5052102;28;20053;-80
2023/02/18 02:38:03;;;;;;;5.07;2.20;;;;;;;;;;5051732;28;20116;-80
2023/02/18 02:40:45;;;;;;;4.40;2.05;;;;;;;;;;5039677;28;20064;-79
2023/02/18 02:43:24;;;;;;;4.60;2.25;;;;;;;;;;5051512;28;20552;-79
2023/02/18 02:46:01;;;;;;;2.58;2.08;;;;;;;;;;5051832;28;20012;-80
2023/02/18 02:48:39;;;;;;;2.78;2.20;;;;;;;;;;5051646;28;20548;-80
2023/02/18 02:51:27;;;;;;;4.03;2.42;;;;;;;;;;5051375;28;20069;-80
2023/02/18 02:53:52;;;;;;;4.18;2.58;;;;;;;;;;5053224;28;20109;-80
2023/02/18 02:56:24;;;;;;;5.20;2.53;;;;;;;;;;5050810;28;20338;-79
2023/02/18 02:59:01;;;;;;;2.83;2.10;;;;;;;;;;5052234;28;20365;-80
2023/02/18 03:01:27;;;;;;;6.45;3.33;;;;;;;;;;5052408;28;20087;-81
2023/02/18 03:04:29;;;;;;;3.17;2.45;;;;;;;;;;5050425;28;20100;-80
2023/02/18 03:07:13;;;;;;;4.57;2.67;;;;;;;;;;5028061;28;20087;-78
2023/02/18 03:10:07;;;;;;;3.00;2.17;;;;;;;;;;5050218;28;20484;-80
2023/02/18 03:13:24;;;;;;;3.65;2.45;;;;;;;;;;5050034;28;20060;-79
2023/02/18 03:16:00;;;;;;;5.38;2.47;;;;;;;;;;5037947;28;20051;-78
2023/02/18 03:18:35;;;;;;;3.85;2.58;;;;;;;;;;5050990;28;20044;-78
2023/02/18 03:21:39;;;;;;;3.90;2.70;;;;;;;;;;5050951;28;20389;-78
2023/02/18 03:24:15;;;;;;;5.07;2.30;;;;;;;;;;5047114;28;20028;-80
2023/02/18 03:26:45;;;;;;;4.20;2.33;;;;;;;;;;5051400;28;20380;-78
2023/02/18 03:29:14;;;;;;;4.55;2.00;;;;;;;;;;5051569;28;20095;-78
2023/02/18 03:31:44;;;;;;;3.00;2.00;;;;;;;;;;5050141;28;20159;-78
2023/02/18 03:34:17;;;;;;;3.85;2.45;;;;;;;;;;5050239;28;20033;-79
2023/02/18 03:36:43;;;;;;;3.45;2.20;;;;;;;;;;5051690;28;20048;-78
2023/02/18 03:39:17;;;;;;;3.17;1.90;;;;;;;;;;5050363;28;20032;-79
2023/02/18 03:41:44;;;;;;;2.72;2.20;;;;;;;;;;5051851;28;20017;-78
2023/02/18 03:44:11;;;;;;;4.25;1.83;;;;;;;;;;5051504;28;20032;-77
2023/02/18 03:46:39;;;;;;;2.88;1.90;;;;;;;;;;5049411;28;20033;-78
2023/02/18 03:49:05;;;;;;;2.95;2.33;;;;;;;;;;5049770;28;20448;-78
2023/02/18 03:51:31;;;;;;;2.50;2.05;;;;;;;;;;5050550;28;20108;-78
2023/02/18 03:53:56;;;;;;;5.20;2.13;;;;;;;;;;5050964;28;20036;-77
2023/02/18 03:56:22;;;;;;;2.28;1.80;;;;;;;;;;5049553;28;20031;-78
2023/02/18 03:58:48;;;;;;;2.05;1.67;;;;;;;;;;5049279;28;20365;-79
2023/02/18 04:01:14;;;;;;;2.08;1.80;;;;;;;;;;5049734;28;20075;-78
2023/02/18 04:03:39;;;;;;;3.53;2.17;;;;;;;;;;5049011;28;20442;-78
2023/02/18 04:06:05;;;;;;;2.70;1.85;;;;;;;;;;5049561;28;20495;-78
2023/02/18 04:08:31;;;;;;;2.53;1.73;;;;;;;;;;5050288;28;20098;-79
2023/02/18 04:10:56;;;;;;;4.75;1.92;;;;;;;;;;5066439;28;20032;-78
2023/02/18 04:13:22;;;;;;;3.55;2.13;;;;;;;;;;5049726;28;20116;-79
2023/02/18 04:15:49;;;;;;;3.08;1.85;;;;;;;;;;5051404;28;20025;-79
2023/02/18 04:18:15;;;;;;;3.17;2.00;;;;;;;;;;5049562;28;20064;-78
2023/02/18 04:20:41;;;;;;;3.45;2.10;;;;;;;;;;5049264;28;20040;-79
2023/02/18 04:23:06;;;;;;;3.47;1.75;;;;;;;;;;5051052;28;20036;-78
2023/02/18 04:25:32;;;;;;;2.30;1.70;;;;;;;;;;5051184;28;20078;-78
2023/02/18 04:27:57;;;;;;;4.05;2.17;;;;;;;;;;5054197;28;20061;-78
2023/02/18 04:30:23;;;;;;;2.33;1.83;;;;;;;;;;5053892;28;20083;-79
2023/02/18 04:32:48;;;;;;;2.25;1.80;;;;;;;;;;5055653;28;20123;-79
2023/02/18 04:35:14;;;;;;;2.47;1.55;;;;;;;;;;5054082;28;20122;-78
2023/02/18 04:37:40;;;;;;;2.00;1.75;;;;;;;;;;5055136;28;20430;-78
2023/02/18 04:40:06;;;;;;;2.88;1.70;;;;;;;;;;5055072;28;20100;-78
2023/02/18 04:42:31;;;;;;;4.10;1.80;;;;;;;;;;5054305;28;20029;-79
2023/02/18 04:44:57;;;;;;;2.15;1.33;;;;;;;;;;5054577;28;20159;-79
2023/02/18 04:47:23;;;;;;;3.55;1.70;;;;;;;;;;5053828;28;20181;-79
2023/02/18 04:49:48;;;;;;;2.47;1.63;;;;;;;;;;5053814;28;20028;-79
2023/02/18 04:52:14;;;;;;;3.70;1.77;;;;;;;;;;5046747;28;20052;-79
2023/02/18 04:54:40;;;;;;;3.83;1.70;;;;;;;;;;5033081;28;20053;-78
2023/02/18 04:57:05;;;;;;;3.15;1.90;;;;;;;;;;5033393;28;20029;-78
2023/02/18 04:59:31;;;;;;;3.45;2.03;;;;;;;;;;5033774;28;20032;-78
2023/02/18 05:01:56;;;;;;;2.75;1.70;;;;;;;;;;5033238;28;20030;-79
2023/02/18 05:04:22;;;;;;;3.25;1.65;;;;;;;;;;5033571;28;20103;-79
2023/02/18 05:06:47;;;;;;;1.92;1.65;;;;;;;;;;5034119;28;20040;-79
2023/02/18 05:09:13;;;;;;;2.30;1.63;;;;;;;;;;5034994;28;20163;-79
2023/02/18 05:11:39;;;;;;;3.10;1.55;;;;;;;;;;5034392;28;20365;-80
2023/02/18 05:14:05;;;;;;;4.65;2.05;;;;;;;;;;5034181;28;20409;-79
2023/02/18 05:16:30;;;;;;;4.10;1.77;;;;;;;;;;5032666;28;20060;-79
2023/02/18 05:18:56;;;;;;;3.25;1.40;;;;;;;;;;5033097;28;20048;-79
2023/02/18 05:21:21;;;;;;;2.05;1.20;;;;;;;;;;5032631;28;20083;-78
2023/02/18 05:23:47;;;;;;;3.75;1.70;;;;;;;;;;5034117;28;20025;-79
2023/02/18 05:26:12;;;;;;;2.83;1.70;;;;;;;;;;5033961;28;20312;-79
2023/02/18 05:28:38;;;;;;;3.85;1.80;;;;;;;;;;5032869;28;20071;-79
2023/02/18 05:31:03;;;;;;;3.40;1.60;;;;;;;;;;5032294;28;20433;-78
2023/02/18 05:33:30;;;;;;;2.83;1.58;;;;;;;;;;5033826;28;20022;-81
2023/02/18 05:35:56;;;;;;;3.13;1.60;;;;;;;;;;5034494;28;20466;-77
2023/02/18 05:38:21;;;;;;;3.80;1.75;;;;;;;;;;5031460;28;20140;-80
2023/02/18 05:40:47;;;;;;;2.58;1.55;;;;;;;;;;5033346;28;20021;-79
2023/02/18 05:43:12;;;;;;;4.22;2.13;;;;;;;;;;5033667;28;20032;-78
2023/02/18 05:45:38;;;;;;;1.80;1.60;;;;;;;;;;5038111;28;20116;-78
2023/02/18 05:48:04;;;;;;;5.65;1.58;;;;;;;;;;5055466;28;20488;-81
2023/02/18 05:50:29;;;;;;;5.07;1.77;;;;;;;;;;5069327;28;20076;-79
2023/02/18 05:52:55;;;;;;;2.85;1.42;;;;;;;;;;5054254;28;20484;-79
2023/02/18 05:55:20;;;;;;;1.77;1.42;;;;;;;;;;5052677;28;20484;-79
2023/02/18 05:57:46;;;;;;;2.30;1.50;;;;;;;;;;5053869;28;20036;-79
2023/02/18 06:00:12;;;;;;;2.10;1.33;;;;;;;;;;5052204;28;20189;-80
2023/02/18 06:02:38;;;;;;;3.45;1.63;;;;;;;;;;5051933;28;20033;-78
2023/02/18 06:05:04;;;;;;;3.47;1.70;;;;;;;;;;5054080;28;20032;-79
2023/02/18 06:07:30;;;;;;;1.98;1.48;;;;;;;;;;5054081;28;20020;-79
2023/02/18 06:09:55;;;;;;;2.47;1.55;;;;;;;;;;5054855;28;20029;-78
2023/02/18 06:12:21;;;;;;;3.65;1.70;;;;;;;;;;5053098;28;20135;-78
2023/02/18 06:14:46;;;;;;;7.80;1.92;;;;;;;;;;5052590;28;20068;-79
2023/02/18 06:17:12;;;;;;;2.30;1.70;;;;;;;;;;5053418;28;20112;-78
2023/02/18 06:19:40;;;;;;;1.42;1.25;;;;;;;;;;5054785;28;20029;-80
2023/02/18 06:22:06;;;;;;;1.60;1.40;;;;;;;;;;5053137;28;20036;-79
2023/02/18 06:24:32;;;;;;;2.30;1.40;;;;;;;;;;5035599;28;20032;-79
2023/02/18 06:26:58;;;;;;;5.88;1.35;;;;;;;;;;5052653;28;20043;-79
2023/02/18 06:29:24;;;;;;;4.65;1.60;;;;;;;;;;5052975;28;20495;-79
2023/02/18 06:31:49;;;;;;;3.80;1.27;;;;;;;;;;5052865;28;20388;-79
2023/02/18 06:34:15;;;;;;;2.65;1.40;;;;;;;;;;5053506;28;20032;-79
2023/02/18 06:36:40;;;;;;;1.90;1.05;;;;;;;;;;5051489;28;20055;-78
2023/02/18 06:39:06;;;;;;;4.95;1.77;;;;;;;;;;5052032;28;20035;-78
2023/02/18 06:41:32;;;;;;;1.83;1.45;;;;;;;;;;5051685;28;20021;-79
2023/02/18 06:43:57;;;;;;;2.92;1.70;;;;;;;;;;5051431;28;20051;-79
2023/02/18 06:46:23;;;;;;;2.65;1.20;;;;;;;;;;5067746;28;20036;-79
2023/02/18 06:48:49;;;;;;;3.00;2.22;;;;;;;;;;5050909;28;20031;-79
2023/02/18 06:51:18;;;;;;;5.53;1.52;;;;;;;;;;5034507;28;20033;-79
2023/02/18 06:53:44;;;;;;;3.88;1.50;;;;;;;;;;5052421;28;20021;-78
2023/02/18 06:56:09;;;;;;;1.88;1.27;;;;;;;;;;5051251;28;20502;-78
2023/02/18 06:58:35;;;;;;;2.17;1.40;;;;;;;;;;5034210;28;20017;-77
2023/02/18 07:01:00;;;;;;;3.83;1.63;;;;;;;;;;5051700;28;20017;-77
2023/02/18 07:03:26;;;;;;;3.85;1.60;;;;;;;;;;5052464;28;20025;-79
2023/02/18 07:05:52;;;;;;;3.38;2.17;;;;;;;;;;5051261;28;20024;-78
2023/02/18 07:08:17;;;;;;;3.17;1.60;;;;;;;;;;5052278;28;20024;-78
2023/02/18 07:10:43;;;;;;;3.72;1.42;;;;;;;;;;5051542;28;20025;-79
2023/02/18 07:13:09;;;;;;;2.00;1.73;;;;;;;;;;5053239;28;20473;-79
2023/02/18 07:15:34;;;;;;;2.90;1.13;;;;;;;;;;5052696;28;20032;-78
2023/02/18 07:18:00;;;;;;;3.65;1.33;;;;;;;;;;5050848;28;20056;-79
2023/02/18 07:20:26;;;;;;;3.03;1.42;;;;;;;;;;5050697;28;20479;-79
2023/02/18 07:22:52;;;;;;;4.30;1.30;;;;;;;;;;5050613;28;20039;-79
2023/02/18 07:25:18;;;;;;;3.00;1.58;;;;;;;;;;5052038;28;20546;-79
2023/02/18 07:27:43;;;;;;;6.72;1.75;;;;;;;;;;5033606;28;20036;-79
2023/02/18 07:30:10;;;;;;;3.92;1.50;;;;;;;;;;5050103;28;20036;-79
2023/02/18 07:32:35;;;;;;;1.58;1.30;;;;;;;;;;5050770;28;20457;-80
2023/02/18 07:35:01;;;;;;;4.43;1.60;;;;;;;;;;5050504;28;20127;-79
2023/02/18 07:37:27;;;;;;;6.10;1.27;;;;;;;;;;5051509;28;20496;-80
2023/02/18 07:39:52;;;;;;;5.57;1.50;;;;;;;;;;5034214;28;20032;-79
2023/02/18 07:42:18;;;;;;;4.40;1.70;;;;;;;;;;5030947;28;20453;-79
2023/02/18 07:44:43;;;;;;;1.13;0.95;;;;;;;;;;5032197;28;20037;-78
2023/02/18 07:47:13;;;;;;;1.88;1.00;;;;;;;;;;5031250;28;20079;-79
2023/02/18 07:49:38;;;;;;;2.50;1.25;;;;;;;;;;5030652;28;20082;-79
2023/02/18 07:52:04;;;;;;;3.95;1.20;;;;;;;;;;5030869;28;20025;-78
2023/02/18 07:54:29;;;;;;;3.85;1.33;;;;;;;;;;5013885;28;20334;-80
2023/02/18 07:56:55;;;;;;;2.35;1.13;;;;;;;;;;5031849;28;20033;-81
2023/02/18 07:59:20;;;;;;;5.35;2.03;;;;;;;;;;5030665;28;20080;-79
2023/02/18 08:01:46;;;;;;;2.25;1.35;;;;;;;;;;5029309;28;20033;-80
2023/02/18 08:04:12;;;;;;;5.47;1.55;;;;;;;;;;5029828;28;20029;-79
2023/02/18 08:06:46;;;;;;;1.10;1.00;;;;;;;;;;5031196;28;20083;-79
2023/02/18 08:09:13;;;;;;;1.17;1.02;;;;;;;;;;5029670;28;20549;-78
2023/02/18 08:11:39;;;;;;;1.48;1.00;;;;;;;;;;5030439;28;20535;-79
2023/02/18 08:14:05;;;;;;;2.08;1.20;;;;;;;;;;5029252;28;20083;-78
2023/02/18 08:16:31;;;;;;;2.42;1.27;;;;;;;;;;5029814;28;20030;-78
2023/02/18 08:18:57;;;;;;;6.30;1.02;;;;;;;;;;5030656;28;20041;-79
2023/02/18 08:21:24;;;;;;;3.60;1.08;;;;;;;;;;5030915;28;20428;-78
2023/02/18 08:23:50;;;;;;;6.25;1.60;;;;;;;;;;5031058;28;20033;-78
2023/02/18 08:26:17;;;;;;;1.30;0.82;;;;;;;;;;5029889;28;20116;-79
2023/02/18 08:28:44;;;;;;;0.65;0.63;;;;;;;;;;5030415;28;20394;-79
2023/02/18 08:31:19;;;;;;;2.65;0.85;;;;;;;;;;5031340;28;20026;-79
2023/02/18 08:33:45;;;;;;;1.88;0.85;;;;;;;;;;5030332;28;20025;-80
2023/02/18 08:36:10;;;;;;;0.75;0.70;;;;;;;;;;5029340;28;20412;-77
2023/02/18 08:38:36;;;;;;;2.47;0.80;;;;;;;;;;5035651;28;20036;-81
2023/02/18 08:41:03;;;;;;;2.55;0.90;;;;;;;;;;5051285;28;20025;-81
2023/02/18 08:43:29;;;;;;;1.33;0.85;;;;;;;;;;5051270;28;20035;-79
2023/02/18 08:45:56;;;;;;;0.98;0.80;;;;;;;;;;5051315;28;20112;-79
2023/02/18 08:48:22;;;;;;;1.45;0.60;;;;;;;;;;5051567;28;20036;-78
2023/02/18 08:50:47;;;;;;;1.42;0.90;;;;;;;;;;5050306;28;20029;-79
2023/02/18 08:53:13;;;;;;;1.30;0.70;;;;;;;;;;5049094;28;20036;-81
2023/02/18 08:55:40;;;;;;;1.85;0.73;;;;;;;;;;5049166;28;20086;-79
2023/02/18 08:58:06;;;;;;;1.13;0.70;;;;;;;;;;5049844;28;20075;-78
2023/02/18 09:00:32;;;;;;;1.13;0.80;;;;;;;;;;5050654;28;20025;-80
2023/02/18 09:02:57;;;;;;;1.33;0.57;;;;;;;;;;5049166;28;20041;-81
2023/02/18 09:05:23;;;;;;;0.80;0.60;;;;;;;;;;5049163;28;20041;-79
2023/02/18 09:07:48;;;;;;;1.48;0.80;;;;;;;;;;5051483;28;20029;-79
2023/02/18 09:10:14;;;;;;;0.98;0.90;;;;;;;;;;5049523;28;20025;-78
2023/02/18 09:12:39;;;;;;;0.73;0.70;;;;;;;;;;5051624;28;20104;-79
2023/02/18 09:15:05;;;;;;;2.92;0.90;;;;;;;;;;5052951;28;20039;-79
2023/02/18 09:17:31;;;;;;;1.00;0.73;;;;;;;;;;5052537;28;20368;-81
2023/02/18 09:19:56;;;;;;;2.58;0.60;;;;;;;;;;5053596;28;20017;-79
2023/02/18 09:22:22;;;;;;;1.48;0.70;;;;;;;;;;5052628;28;20115;-79
2023/02/18 09:24:48;;;;;;;1.45;0.70;;;;;;;;;;5054094;28;20036;-81
2023/02/18 09:27:13;;;;;;;1.00;0.73;;;;;;;;;;5054533;28;20025;-79
2023/02/18 09:29:40;;;;;;;2.05;0.68;;;;;;;;;;5053019;28;20040;-79
2023/02/18 09:32:07;;;;;;;11.02;1.13;;;;;;;;;;5054978;28;20025;-79
2023/02/18 09:34:33;;;;;;;1.00;0.60;;;;;;;;;;5052555;28;20032;-79
2023/02/18 09:36:59;;;;;;;2.10;1.00;;;;;;;;;;5053817;28;20086;-80
2023/02/18 09:39:24;;;;;;;1.67;0.60;;;;;;;;;;5041708;28;20468;-79
2023/02/18 09:41:56;;;;;;;2.38;0.40;;;;;;;;;;5034382;28;20022;-80
2023/02/18 09:44:32;;;;;;;;;;;;;;;;;;5033148;28;20087;-78
2023/02/18 09:47:28;;;;;;;1.63;0.40;;;;;;;;;;5033197;28;19909;-79
2023/02/18 09:49:58;;;;;;;0.60;0.60;;;;;;;;;;5031582;28;20033;-80
2023/02/18 09:52:34;;;;;;;6.55;0.80;;;;;;;;;;5031911;28;20052;-79
2023/02/18 09:55:10;;;;;;;0.50;0.32;;;;;;;;;;5033216;28;20025;-81
2023/02/18 09:57:44;;;;;;;0.73;0.40;;;;;;;;;;5033170;28;20029;-81
2023/02/18 10:00:18;;;;;;;3.50;0.60;;;;;;;;;;5031335;28;20117;-80
2023/02/18 10:03:13;;;;;;;2.42;0.50;;;;;;;;;;5031719;28;20029;-80
2023/02/18 10:05:47;;;;;;;0.63;0.50;;;;;;;;;;5025978;28;20044;-80
2023/02/18 10:08:21;;;;;;;1.27;0.50;;;;;;;;;;5032002;28;20025;-81
2023/02/18 10:10:47;;;;;;;1.55;0.40;;;;;;;;;;5033035;28;20051;-80
2023/02/18 10:13:23;;;;;;;0.50;0.50;;;;;;;;;;5031451;28;20033;-80
2023/02/18 10:15:49;;;;;;;1.35;0.40;;;;;;;;;;5031642;28;20125;-80
2023/02/18 10:18:31;;;;;;;6.50;0.80;;;;;;;;;;5032015;28;20052;-79
2023/02/18 10:21:06;;;;;;;2.25;0.47;;;;;;;;;;5031968;28;20017;-79
2023/02/18 10:23:35;;;;;;;0.52;0.52;;;;;;;;;;5032328;28;20021;-81
2023/02/18 10:26:05;;;;;;;0.68;0.47;;;;;;;;;;5031039;28;20029;-80
2023/02/18 10:28:31;;;;;;;3.45;0.77;;;;;;;;;;5032341;28;20025;-79
2023/02/18 10:31:03;;;;;;;2.83;0.50;;;;;;;;;;5032881;28;20076;-79
2023/02/18 10:33:29;;;;;;;1.23;0.32;;;;;;;;;;5032521;28;20056;-78
2023/02/18 10:36:21;;;;;;;2.40;1.23;;;;;;;;;;5030803;28;20462;-79
2023/02/18 10:38:59;;;;;;;0.38;0.38;;;;;;;;;;5031432;28;20179;-79
2023/02/18 10:41:43;;;;;;;0.88;0.57;;;;;;;;;;5031488;28;20018;-80
2023/02/18 10:44:44;;;;;;;1.00;0.30;;;;;;;;;;5031768;28;20535;-79
2023/02/18 10:47:13;;;;;;;0.55;0.22;;;;;;;;;;5008641;28;20543;-81
2023/02/18 10:49:55;;;;;;;0.40;0.30;;;;;;;;;;5032906;28;20025;-80
2023/02/18 10:52:22;;;;;;;0.73;0.50;;;;;;;;;;5031337;28;20100;-79
2023/02/18 10:54:58;;;;;;;0.45;0.40;;;;;;;;;;5030248;28;20037;-79
2023/02/18 10:57:25;;;;;;;2.95;0.60;;;;;;;;;;5031479;28;20056;-79
2023/02/18 10:59:58;;;;;;;0.60;0.52;;;;;;;;;;5030934;28;20480;-79
2023/02/18 11:02:29;;;;;;;0.40;0.40;;;;;;;;;;5031857;28;20384;-79
2023/02/18 11:04:57;;;;;;;0.60;0.60;;;;;;;;;;5030946;28;20025;-79
2023/02/18 11:07:31;;;;;;;1.08;0.90;;;;;;;;;;5033201;28;20029;-81
2023/02/18 11:10:09;;;;;;;1.05;0.90;;;;;;;;;;5030729;28;20030;-80
2023/02/18 11:12:45;;;;;;;1.33;1.00;;;;;;;;;;5031023;28;20548;-78
2023/02/18 11:15:14;;;;;;;0.98;0.90;;;;;;;;;;5030908;28;20419;-78
2023/02/18 11:17:41;;;;;;;2.17;1.50;;;;;;;;;;5032052;28;20047;-78
2023/02/18 11:20:19;;;;;;;1.80;1.40;;;;;;;;;;5030686;28;20022;-79
2023/02/18 11:22:46;;;;;;;2.83;1.38;;;;;;;;;;5031076;28;20022;-82
2023/02/18 11:25:27;;;;;;;4.18;1.40;;;;;;;;;;5032439;28;20029;-81
2023/02/18 11:27:59;;;;;;;3.65;1.98;;;;;;;;;;5031132;28;20036;-80
2023/02/18 11:30:29;;;;;;;1.80;1.60;;;;;;;;;;5030975;28;20034;-80
2023/02/18 11:33:09;;;;;;;5.75;1.92;;;;;;;;;;5030637;28;20052;-79
2023/02/18 11:35:36;;;;;;;2.22;2.03;;;;;;;;;;5031424;28;20384;-79
2023/02/18 11:38:13;;;;;;;4.07;2.13;;;;;;;;;;5031510;28;20143;-79
2023/02/18 11:40:39;;;;;;;2.40;1.80;;;;;;;;;;5030499;28;20014;-78
2023/02/18 11:43:11;;;;;;;5.03;2.00;;;;;;;;;;5030534;28;20025;-81
2023/02/18 11:45:38;;;;;;;;;;;;;;;;;;5031343;28;20041;-79
2023/02/18 11:48:14;;;;;;;3.08;2.00;;;;;;;;;;5031744;28;19917;-79
2023/02/18 11:50:41;;;;;;;5.10;2.22;;;;;;;;;;5031740;28;20029;-79
2023/02/18 11:53:29;;;;;;;4.53;2.53;;;;;;;;;;5030816;28;20036;-79
2023/02/18 11:56:00;;;;;;;3.55;2.58;;;;;;;;;;5031551;28;20021;-80
2023/02/18 11:58:28;;;;;;;3.80;2.83;;;;;;;;;;5031162;28;20083;-79
2023/02/18 12:00:57;;;;;;;3.50;2.55;;;;;;;;;;5032021;28;20341;-79
2023/02/18 12:03:46;;;;;;;3.97;3.05;;;;;;;;;;5030259;28;20027;-79
2023/02/18 12:06:22;;;;;;;3.83;2.40;;;;;;;;;;5029446;28;20034;-80
2023/02/18 12:08:52;;;;;;;3.90;3.15;;;;;;;;;;5031718;28;20027;-80
2023/02/18 12:11:42;;;;;;;8.27;3.22;;;;;;;;;;5031492;28;20072;-79
2023/02/18 12:14:16;;;;;;;4.30;2.85;;;;;;;;;;5031064;28;20025;-79
2023/02/18 12:17:04;;;;;;;6.05;2.97;;;;;;;;;;5030157;28;20025;-79
2023/02/18 12:19:42;;;;;;;4.93;3.03;;;;;;;;;;5031196;28;20128;-79
2023/02/18 12:22:30;;;;;;;4.90;2.90;;;;;;;;;;5029886;28;20033;-79
2023/02/18 12:25:17;;;;;;;4.50;3.03;;;;;;;;;;5031240;28;20033;-80
2023/02/18 12:27:52;;;;;;;6.53;3.22;;;;;;;;;;5030527;28;20492;-80
2023/02/18 12:30:27;;;;;;;4.30;3.13;;;;;;;;;;5030958;28;20566;-80
2023/02/18 12:33:01;;;;;;;9.35;3.78;;;;;;;;;;5030914;28;20471;-79
2023/02/18 12:35:50;;;;;;;19.20;4.35;;;;;;;;;;5028857;28;20401;-78
2023/02/18 12:38:28;;;;;;;4.35;3.40;;;;;;;;;;5032735;28;20450;-80
2023/02/18 12:41:11;;;;;;;5.28;3.80;;;;;;;;;;5049375;28;20025;-78
2023/02/18 12:43:46;;;;;;;5.25;3.72;;;;;;;;;;5049396;28;20484;-79
2023/02/18 12:46:20;;;;;;;4.65;3.50;;;;;;;;;;5050879;28;20324;-78
2023/02/18 12:49:01;;;;;;;4.97;3.63;;;;;;;;;;5052340;28;20028;-80
2023/02/18 12:51:36;;;;;;;9.57;4.05;;;;;;;;;;5052620;28;20025;-80
2023/02/18 12:54:27;;;;;;;5.13;3.22;;;;;;;;;;5053493;28;20108;-78
2023/02/18 12:57:10;;;;;;;3.85;2.92;;;;;;;;;;5055249;28;20037;-80
2023/02/18 12:59:35;;;;;;;6.45;3.15;;;;;;;;;;5055180;28;20044;-79
2023/02/18 13:02:19;;;;;;;8.43;3.47;;;;;;;;;;5052894;28;20029;-80
2023/02/18 13:05:02;;;;;;;5.40;3.22;;;;;;;;;;5055054;28;20039;-79
2023/02/18 13:07:47;;;;;;;4.50;3.17;;;;;;;;;;5054425;28;20024;-80
2023/02/18 13:10:22;;;;;;;8.57;3.20;;;;;;;;;;5054404;28;20104;-79
2023/02/18 13:13:11;;;;;;;3.75;3.28;;;;;;;;;;5053565;28;20052;-79
2023/02/18 13:15:55;;;;;;;7.00;3.15;;;;;;;;;;5053918;28;20108;-80
2023/02/18 13:18:27;;;;;;;8.88;4.72;;;;;;;;;;5052257;28;20248;-79
2023/02/18 13:20:59;;;;;;;6.32;3.35;;;;;;;;;;5053495;28;20024;-80
2023/02/18 13:23:30;;;;;;;9.48;3.50;;;;;;;;;;5052235;28;20139;-80
2023/02/18 13:26:02;;;;;;;6.63;3.63;;;;;;;;;;5052063;28;20384;-80
2023/02/18 13:28:46;;;;;;;4.57;3.50;;;;;;;;;;5052401;28;20115;-80
2023/02/18 13:31:45;;;;;;;6.55;3.80;;;;;;;;;;5053793;28;20337;-80
2023/02/18 13:34:28;;;;;;;6.07;2.88;;;;;;;;;;5052423;28;20036;-80
2023/02/18 13:37:01;;;;;;;4.50;2.63;;;;;;;;;;5054590;28;20057;-80
2023/02/18 13:39:27;;;;;;;3.55;2.83;;;;;;;;;;5040427;28;20024;-79
2023/02/18 13:42:21;;;;;;;4.97;3.05;;;;;;;;;;5032380;28;20025;-80
2023/02/18 13:44:55;;;;;;;5.50;2.88;;;;;;;;;;5031946;28;20112;-79
2023/02/18 13:47:43;;;;;;;7.32;3.35;;;;;;;;;;5033582;28;20448;-81
2023/02/18 13:50:21;;;;;;;7.40;3.25;;;;;;;;;;5033615;28;20025;-79
2023/02/18 13:52:51;;;;;;;4.88;3.25;;;;;;;;;;5033959;28;20515;-80
2023/02/18 13:55:22;;;;;;;3.85;3.55;;;;;;;;;;5033634;28;20025;-80
2023/02/18 13:57:54;;;;;;;4.88;3.55;;;;;;;;;;5032172;28;20056;-79
2023/02/18 14:00:21;;;;;;;;;;;;;;;;;;5032708;28;20030;-80
2023/02/18 14:03:17;;;;;;;4.93;3.05;;;;;;;;;;5032837;28;19963;-80
2023/02/18 14:05:43;;;;;;;4.22;2.85;;;;;;;;;;5031583;28;20056;-80
2023/02/18 14:08:30;;;;;;;5.90;3.40;;;;;;;;;;5032551;28;20037;-78
2023/02/18 14:11:10;;;;;;;3.67;2.90;;;;;;;;;;5031312;28;20481;-78
2023/02/18 14:13:51;;;;;;;5.90;3.28;;;;;;;;;;5031523;28;20098;-80
2023/02/18 14:16:18;;;;;;;4.78;3.00;;;;;;;;;;5031192;28;20427;-79
2023/02/18 14:18:44;;;;;;;7.32;3.50;;;;;;;;;;5031044;28;20040;-79
2023/02/18 14:21:12;;;;;;;4.97;3.05;;;;;;;;;;5031183;28;20029;-79
2023/02/18 14:23:50;;;;;;;4.40;2.65;;;;;;;;;;5031607;28;20021;-79
2023/02/18 14:26:31;;;;;;;3.85;2.83;;;;;;;;;;5031051;28;20029;-79
2023/02/18 14:29:05;;;;;;;4.43;3.13;;;;;;;;;;5032725;28;20115;-79
2023/02/18 14:31:53;;;;;;;5.78;3.50;;;;;;;;;;5032655;28;20340;-79
2023/02/18 14:34:21;;;;;;;5.93;3.20;;;;;;;;;;5032765;28;20060;-80
2023/02/18 14:37:05;;;;;;;3.63;2.70;;;;;;;;;;5032429;28;20053;-80
2023/02/18 14:39:42;;;;;;;4.47;3.00;;;;;;;;;;5030850;28;20187;-78
2023/02/18 14:42:59;;;;;;;4.50;3.00;;;;;;;;;;5030935;28;20100;-80
2023/02/18 14:45:52;;;;;;;5.20;2.67;;;;;;;;;;4997815;28;20044;-80
2023/02/18 14:48:44;;;;;;;5.93;3.40;;;;;;;;;;5031783;28;20051;-80
2023/02/18 14:51:15;;;;;;;6.72;3.13;;;;;;;;;;5030803;28;20021;-80
2023/02/18 14:53:43;;;;;;;4.82;2.88;;;;;;;;;;5032187;28;20029;-80
2023/02/18 14:56:13;;;;;;;6.35;3.17;;;;;;;;;;5032011;28;20349;-79
2023/02/18 14:58:43;;;;;;;4.53;3.03;;;;;;;;;;5032365;28;20025;-78
2023/02/18 15:01:21;;;;;;;6.07;3.78;;;;;;;;;;5030624;28;20360;-79
2023/02/18 15:03:52;;;;;;;8.57;3.10;;;;;;;;;;5030384;28;20056;-80
2023/02/18 15:06:29;;;;;;;4.32;3.58;;;;;;;;;;5032316;28;20543;-78
2023/02/18 15:08:54;;;;;;;4.63;2.92;;;;;;;;;;5032801;28;20475;-79